Terminal Aerodrome Forecast
Issued by NWS

Home | Current Version | Previous Version | Graphics & Text | Print | Product List | Glossary On
Versions: 1 2 3 4 5 6 7 8 9 10 11 12 13 14 15 16 17 18 19 20 21 22
000
FTUS41 KCLE 220500
TAFFDY
TAF
KFDY 220529Z 2206/2306 19006KT P6SM SCT250
     FM220800 19008KT P6SM BKN040 OVC080 WS020/24045KT
      TEMPO 2210/2214 6SM -FZRA OVC020
     FM221400 20012KT 5SM -RA BR BKN020 OVC050 WS020/24050KT
     FM221900 22014G24KT P6SM VCSH BKN020
     FM230100 18010KT P6SM OVC040=

USA.gov is the U.S. government's official web portal to all federal, state and local government web resources and services.